sensor_id;sensor_type;location;lat;lon;timestamp;pressure;altitude;pressure_sealevel;temperature;humidity
70458;BME280;57919;56.194;95.716;2023-04-21T00:02:34;100204.84;;;-2.42;70.56
70458;BME280;57919;56.194;95.716;2023-04-21T00:12:39;100205.19;;;-1.02;67.74
70458;BME280;57919;56.194;95.716;2023-04-21T00:22:41;100197.50;;;-0.15;65.01
70458;BME280;57919;56.194;95.716;2023-04-21T00:32:44;100187.31;;;0.57;62.41
70458;BME280;57919;56.194;95.716;2023-04-21T00:42:46;100179.94;;;0.65;62.34
70458;BME280;57919;56.194;95.716;2023-04-21T00:52:48;100188.88;;;1.67;60.37
70458;BME280;57919;56.194;95.716;2023-04-21T01:02:50;100191.66;;;1.87;59.32
70458;BME280;57919;56.194;95.716;2023-04-21T01:12:52;100184.72;;;2.73;57.58
70458;BME280;57919;56.194;95.716;2023-04-21T01:22:54;100167.78;;;3.16;55.86
70458;BME280;57919;56.194;95.716;2023-04-21T01:32:55;100165.53;;;3.87;56.45
70458;BME280;57919;56.194;95.716;2023-04-21T01:43:01;100156.44;;;4.83;54.20
70458;BME280;57919;56.194;95.716;2023-04-21T01:53:04;100159.88;;;6.69;51.00
70458;BME280;57919;56.194;95.716;2023-04-21T02:03:07;100159.38;;;6.47;48.97
70458;BME280;57919;56.194;95.716;2023-04-21T02:13:09;100172.06;;;4.93;52.65
70458;BME280;57919;56.194;95.716;2023-04-21T02:23:11;100173.78;;;3.62;54.54
70458;BME280;57919;56.194;95.716;2023-04-21T02:33:13;100188.19;;;2.53;57.42
70458;BME280;57919;56.194;95.716;2023-04-21T02:43:16;100180.25;;;2.96;57.43
70458;BME280;57919;56.194;95.716;2023-04-21T02:53:21;100180.53;;;3.30;57.36
70458;BME280;57919;56.194;95.716;2023-04-21T03:03:23;100176.19;;;3.28;56.96
70458;BME280;57919;56.194;95.716;2023-04-21T03:13:25;100180.31;;;2.72;59.93
70458;BME280;57919;56.194;95.716;2023-04-21T03:23:27;100185.47;;;2.55;58.25
70458;BME280;57919;56.194;95.716;2023-04-21T03:33:28;100186.28;;;2.12;59.28
70458;BME280;57919;56.194;95.716;2023-04-21T03:43:30;100182.72;;;2.35;57.92
70458;BME280;57919;56.194;95.716;2023-04-21T03:53:32;100166.31;;;3.89;53.63
70458;BME280;57919;56.194;95.716;2023-04-21T04:03:34;100169.16;;;4.42;52.39
70458;BME280;57919;56.194;95.716;2023-04-21T04:13:36;100168.06;;;3.90;52.24
70458;BME280;57919;56.194;95.716;2023-04-21T04:23:38;100153.06;;;5.32;48.31
70458;BME280;57919;56.194;95.716;2023-04-21T04:33:40;100155.13;;;4.18;47.92
70458;BME280;57919;56.194;95.716;2023-04-21T04:43:45;100157.06;;;3.57;49.89
70458;BME280;57919;56.194;95.716;2023-04-21T04:53:48;100153.00;;;3.48;50.54
70458;BME280;57919;56.194;95.716;2023-04-21T05:03:49;100141.84;;;3.78;50.06
70458;BME280;57919;56.194;95.716;2023-04-21T05:13:51;100127.91;;;4.28;48.31
70458;BME280;57919;56.194;95.716;2023-04-21T05:23:57;100134.75;;;4.52;48.62
70458;BME280;57919;56.194;95.716;2023-04-21T05:33:59;100117.88;;;4.86;48.79
70458;BME280;57919;56.194;95.716;2023-04-21T05:44:01;100111.03;;;5.65;47.97
70458;BME280;57919;56.194;95.716;2023-04-21T05:54:03;100085.59;;;7.71;45.06
70458;BME280;57919;56.194;95.716;2023-04-21T06:04:05;100083.28;;;7.79;43.77
70458;BME280;57919;56.194;95.716;2023-04-21T06:14:07;100075.19;;;7.36;44.39
70458;BME280;57919;56.194;95.716;2023-04-21T06:24:09;100066.44;;;6.27;45.56
70458;BME280;57919;56.194;95.716;2023-04-21T06:34:10;100050.59;;;5.58;46.90
70458;BME280;57919;56.194;95.716;2023-04-21T06:44:12;100045.38;;;6.20;46.38
70458;BME280;57919;56.194;95.716;2023-04-21T06:54:14;100046.31;;;6.50;46.36
70458;BME280;57919;56.194;95.716;2023-04-21T07:04:17;100053.41;;;6.51;48.17
70458;BME280;57919;56.194;95.716;2023-04-21T07:14:19;100022.50;;;7.32;48.38
70458;BME280;57919;56.194;95.716;2023-04-21T07:24:21;100015.31;;;8.17;44.43
70458;BME280;57919;56.194;95.716;2023-04-21T07:34:23;100003.16;;;7.83;44.46
70458;BME280;57919;56.194;95.716;2023-04-21T07:44:25;100001.16;;;7.43;43.88
70458;BME280;57919;56.194;95.716;2023-04-21T07:54:30;99996.38;;;7.34;43.93
70458;BME280;57919;56.194;95.716;2023-04-21T08:04:32;100010.91;;;6.58;44.61
70458;BME280;57919;56.194;95.716;2023-04-21T08:14:34;100033.81;;;5.04;50.93
70458;BME280;57919;56.194;95.716;2023-04-21T08:24:36;100005.69;;;6.25;49.27
70458;BME280;57919;56.194;95.716;2023-04-21T08:34:38;100005.16;;;6.94;46.30
70458;BME280;57919;56.194;95.716;2023-04-21T08:44:39;100007.66;;;6.97;45.63
70458;BME280;57919;56.194;95.716;2023-04-21T08:54:42;100004.22;;;6.35;46.94
70458;BME280;57919;56.194;95.716;2023-04-21T09:04:46;99990.69;;;6.36;47.94
70458;BME280;57919;56.194;95.716;2023-04-21T09:14:48;99988.28;;;6.62;47.36
70458;BME280;57919;56.194;95.716;2023-04-21T09:24:56;100002.22;;;6.68;47.04
70458;BME280;57919;56.194;95.716;2023-04-21T09:34:59;99989.22;;;6.61;46.11
70458;BME280;57919;56.194;95.716;2023-04-21T09:45:03;99999.06;;;6.46;45.78
70458;BME280;57919;56.194;95.716;2023-04-21T09:55:10;100015.31;;;6.13;47.03
70458;BME280;57919;56.194;95.716;2023-04-21T10:05:12;100001.00;;;6.28;46.96
70458;BME280;57919;56.194;95.716;2023-04-21T10:15:33;100021.19;;;5.72;47.29
70458;BME280;57919;56.194;95.716;2023-04-21T10:25:38;100004.50;;;5.34;47.27
70458;BME280;57919;56.194;95.716;2023-04-21T10:36:00;100005.59;;;5.79;45.22
70458;BME280;57919;56.194;95.716;2023-04-21T10:46:36;100005.28;;;5.36;45.76
70458;BME280;57919;56.194;95.716;2023-04-21T10:56:39;100002.78;;;4.66;46.80
70458;BME280;57919;56.194;95.716;2023-04-21T11:06:40;100000.63;;;4.38;47.75
70458;BME280;57919;56.194;95.716;2023-04-21T11:16:42;100016.38;;;4.27;48.66
70458;BME280;57919;56.194;95.716;2023-04-21T11:26:44;100003.53;;;4.33;48.93
70458;BME280;57919;56.194;95.716;2023-04-21T11:36:47;100002.53;;;4.53;47.90
70458;BME280;57919;56.194;95.716;2023-04-21T11:46:49;100010.06;;;3.92;51.37
70458;BME280;57919;56.194;95.716;2023-04-21T11:56:53;100011.72;;;3.19;54.83
70458;BME280;57919;56.194;95.716;2023-04-21T12:07:00;100019.22;;;3.11;54.23
70458;BME280;57919;56.194;95.716;2023-04-21T12:17:05;100024.03;;;3.03;53.62
70458;BME280;57919;56.194;95.716;2023-04-21T12:27:07;100021.03;;;2.70;54.99
70458;BME280;57919;56.194;95.716;2023-04-21T12:37:10;100031.63;;;2.51;54.54
70458;BME280;57919;56.194;95.716;2023-04-21T12:47:11;100033.97;;;2.16;56.78
70458;BME280;57919;56.194;95.716;2023-04-21T12:57:14;100056.56;;;1.86;58.60
70458;BME280;57919;56.194;95.716;2023-04-21T13:07:16;100062.94;;;1.58;59.54
70458;BME280;57919;56.194;95.716;2023-04-21T13:17:21;100074.38;;;1.39;60.40
70458;BME280;57919;56.194;95.716;2023-04-21T13:27:23;100096.66;;;1.36;59.29
70458;BME280;57919;56.194;95.716;2023-04-21T13:37:26;100094.34;;;1.27;58.80
70458;BME280;57919;56.194;95.716;2023-04-21T13:47:32;100097.00;;;1.27;59.20
70458;BME280;57919;56.194;95.716;2023-04-21T13:57:34;100097.22;;;1.21;59.23
70458;BME280;57919;56.194;95.716;2023-04-21T14:07:36;100092.44;;;1.06;59.42
70458;BME280;57919;56.194;95.716;2023-04-21T14:17:38;100111.47;;;1.20;60.72
70458;BME280;57919;56.194;95.716;2023-04-21T14:27:40;100123.06;;;1.19;60.38
70458;BME280;57919;56.194;95.716;2023-04-21T14:37:42;100127.84;;;1.09;60.53
70458;BME280;57919;56.194;95.716;2023-04-21T14:47:45;100143.22;;;1.01;60.75
70458;BME280;57919;56.194;95.716;2023-04-21T14:57:46;100142.41;;;0.99;60.56
70458;BME280;57919;56.194;95.716;2023-04-21T15:07:48;100141.84;;;0.89;60.73
70458;BME280;57919;56.194;95.716;2023-04-21T15:17:50;100137.28;;;0.67;61.54
70458;BME280;57919;56.194;95.716;2023-04-21T15:27:52;100146.59;;;0.53;61.96
70458;BME280;57919;56.194;95.716;2023-04-21T15:37:54;100137.53;;;0.32;62.28
70458;BME280;57919;56.194;95.716;2023-04-21T15:47:56;100153.28;;;0.11;61.84
70458;BME280;57919;56.194;95.716;2023-04-21T15:57:58;100151.47;;;-0.17;62.27
70458;BME280;57919;56.194;95.716;2023-04-21T16:08:00;100157.13;;;-0.29;62.15
70458;BME280;57919;56.194;95.716;2023-04-21T16:18:02;100156.72;;;-0.45;62.88
70458;BME280;57919;56.194;95.716;2023-04-21T16:28:06;100165.09;;;-0.60;62.87
70458;BME280;57919;56.194;95.716;2023-04-21T16:38:09;100171.00;;;-0.81;63.01
70458;BME280;57919;56.194;95.716;2023-04-21T16:48:11;100166.84;;;-0.91;64.17
70458;BME280;57919;56.194;95.716;2023-04-21T16:58:13;100173.88;;;-0.89;63.28
70458;BME280;57919;56.194;95.716;2023-04-21T17:08:15;100169.03;;;-1.07;64.24
70458;BME280;57919;56.194;95.716;2023-04-21T17:18:18;100171.13;;;-1.20;65.06
70458;BME280;57919;56.194;95.716;2023-04-21T17:28:20;100173.47;;;-1.43;66.54
70458;BME280;57919;56.194;95.716;2023-04-21T17:38:22;100191.56;;;-1.60;66.82
70458;BME280;57919;56.194;95.716;2023-04-21T17:48:24;100193.88;;;-1.84;67.69
70458;BME280;57919;56.194;95.716;2023-04-21T17:58:27;100183.59;;;-1.98;69.07
70458;BME280;57919;56.194;95.716;2023-04-21T18:08:29;100184.34;;;-1.92;70.07
70458;BME280;57919;56.194;95.716;2023-04-21T18:18:31;100188.03;;;-2.00;71.50
70458;BME280;57919;56.194;95.716;2023-04-21T18:28:33;100188.25;;;-2.09;72.32
70458;BME280;57919;56.194;95.716;2023-04-21T18:38:35;100190.13;;;-2.14;72.31
70458;BME280;57919;56.194;95.716;2023-04-21T18:48:37;100179.31;;;-2.05;71.99
70458;BME280;57919;56.194;95.716;2023-04-21T18:58:39;100186.13;;;-1.93;70.29
70458;BME280;57919;56.194;95.716;2023-04-21T19:08:41;100188.78;;;-1.93;70.17
70458;BME280;57919;56.194;95.716;2023-04-21T19:18:43;100202.25;;;-2.02;71.19
70458;BME280;57919;56.194;95.716;2023-04-21T19:28:45;100201.19;;;-2.37;72.73
70458;BME280;57919;56.194;95.716;2023-04-21T19:38:47;100206.06;;;-2.60;73.70
70458;BME280;57919;56.194;95.716;2023-04-21T19:48:50;100209.91;;;-2.76;74.53
70458;BME280;57919;56.194;95.716;2023-04-21T19:58:52;100207.94;;;-2.67;74.80
70458;BME280;57919;56.194;95.716;2023-04-21T20:08:54;100217.09;;;-2.37;75.79
70458;BME280;57919;56.194;95.716;2023-04-21T20:18:56;100209.69;;;-2.21;74.88
70458;BME280;57919;56.194;95.716;2023-04-21T20:28:58;100205.88;;;-2.08;75.31
70458;BME280;57919;56.194;95.716;2023-04-21T20:38:59;100196.09;;;-2.04;75.37
70458;BME280;57919;56.194;95.716;2023-04-21T20:49:02;100214.47;;;-1.97;74.45
70458;BME280;57919;56.194;95.716;2023-04-21T20:59:04;100206.31;;;-1.86;74.05
70458;BME280;57919;56.194;95.716;2023-04-21T21:09:06;100203.78;;;-1.92;74.57
70458;BME280;57919;56.194;95.716;2023-04-21T21:19:09;100211.59;;;-1.86;75.38
70458;BME280;57919;56.194;95.716;2023-04-21T21:29:12;100211.41;;;-1.77;75.46
70458;BME280;57919;56.194;95.716;2023-04-21T21:39:14;100200.78;;;-1.77;75.55
70458;BME280;57919;56.194;95.716;2023-04-21T21:49:16;100214.56;;;-1.61;75.51
70458;BME280;57919;56.194;95.716;2023-04-21T21:59:19;100228.38;;;-1.45;74.54
70458;BME280;57919;56.194;95.716;2023-04-21T22:09:21;100220.50;;;-1.13;73.83
70458;BME280;57919;56.194;95.716;2023-04-21T22:19:23;100229.03;;;-1.00;73.53
70458;BME280;57919;56.194;95.716;2023-04-21T22:29:25;100227.84;;;-0.88;72.72
70458;BME280;57919;56.194;95.716;2023-04-21T22:39:27;100233.59;;;-0.71;72.09
70458;BME280;57919;56.194;95.716;2023-04-21T22:49:29;100229.38;;;-0.46;71.76
70458;BME280;57919;56.194;95.716;2023-04-21T22:59:31;100221.19;;;-0.38;71.65
70458;BME280;57919;56.194;95.716;2023-04-21T23:09:33;100215.50;;;-0.24;71.70
70458;BME280;57919;56.194;95.716;2023-04-21T23:19:35;100235.66;;;0.14;71.23
70458;BME280;57919;56.194;95.716;2023-04-21T23:29:37;100239.13;;;0.45;70.14
70458;BME280;57919;56.194;95.716;2023-04-21T23:39:39;100234.84;;;0.69;69.98
70458;BME280;57919;56.194;95.716;2023-04-21T23:49:40;100245.63;;;0.92;69.74
70458;BME280;57919;56.194;95.716;2023-04-21T23:59:42;100253.13;;;1.08;68.82
